Time;durP1;ratioP1;P1;durP2;ratioP2;P2;SDS_P1;SDS_P2;PMS_P1;PMS_P2;Temp;Humidity;BMP_temperature;BMP_pressure;BME280_temperature;BME280_humidity;BME280_pressure;Samples;Min_cycle;Max_cycle;Signal;HPM_P1;HPM_P2
2023/09/02 00:00:14;;;;;;;7.43;5.03;;;10.40;99.90;;;;;;5090898;28;20297;-80
2023/09/02 00:02:44;;;;;;;7.53;5.10;;;10.30;99.90;;;;;;5092554;28;20219;-80
2023/09/02 00:05:11;;;;;;;5.93;4.80;;;10.30;99.90;;;;;;5107459;28;20317;-81
2023/09/02 00:07:37;;;;;;;5.73;4.67;;;10.30;99.90;;;;;;5108629;27;20320;-80
2023/09/02 00:10:05;;;;;;;7.17;4.60;;;10.30;99.90;;;;;;5109754;27;20216;-80
2023/09/02 00:12:32;;;;;;;7.90;5.43;;;10.20;99.90;;;;;;5111129;28;20234;-81
2023/09/02 00:14:59;;;;;;;6.37;4.57;;;10.20;99.90;;;;;;5095219;28;20210;-80
2023/09/02 00:17:26;;;;;;;6.63;4.57;;;10.20;99.90;;;;;;5112157;28;20244;-80
2023/09/02 00:19:54;;;;;;;6.57;4.93;;;10.20;99.90;;;;;;5109165;28;20217;-81
2023/09/02 00:22:21;;;;;;;6.67;4.70;;;10.10;99.90;;;;;;5104592;28;20230;-82
2023/09/02 00:24:48;;;;;;;8.57;5.37;;;10.10;99.90;;;;;;5105630;28;20632;-82
2023/09/02 00:27:15;;;;;;;5.77;4.67;;;10.10;99.90;;;;;;5103979;28;20214;-82
2023/09/02 00:29:42;;;;;;;6.40;4.80;;;10.10;99.90;;;;;;5110572;28;20226;-82
2023/09/02 00:32:08;;;;;;;7.03;4.97;;;10.00;99.90;;;;;;5095070;28;20246;-81
2023/09/02 00:34:35;;;;;;;7.40;5.03;;;10.00;99.90;;;;;;5106875;28;20312;-81
2023/09/02 00:37:03;;;;;;;6.40;5.10;;;10.00;99.90;;;;;;5109960;28;20297;-81
2023/09/02 00:39:30;;;;;;;8.00;5.20;;;10.00;99.90;;;;;;5115023;28;20293;-81
2023/09/02 00:41:59;;;;;;;6.87;5.10;;;10.00;99.90;;;;;;5113339;28;20725;-81
2023/09/02 00:44:26;;;;;;;8.10;5.30;;;10.00;99.90;;;;;;5088753;28;20289;-81
2023/09/02 00:46:53;;;;;;;4.90;4.17;;;9.90;99.90;;;;;;5112487;28;20291;-82
2023/09/02 00:49:21;;;;;;;6.00;4.57;;;9.90;99.90;;;;;;5093665;28;20225;-81
2023/09/02 00:51:48;;;;;;;5.93;5.07;;;9.90;99.90;;;;;;5090222;28;20232;-81
2023/09/02 00:54:16;;;;;;;6.57;5.27;;;9.90;99.90;;;;;;5109747;28;20312;-81
2023/09/02 00:56:43;;;;;;;7.00;4.70;;;9.80;99.90;;;;;;5085558;28;20309;-81
2023/09/02 00:59:10;;;;;;;6.70;4.80;;;9.80;99.90;;;;;;5087175;28;20305;-81
2023/09/02 01:01:40;;;;;;;7.30;4.77;;;9.80;99.90;;;;;;5090266;28;20233;-81
2023/09/02 01:04:08;;;;;;;6.00;5.30;;;9.70;99.90;;;;;;5109530;28;20793;-80
2023/09/02 01:06:35;;;;;;;5.93;4.40;;;9.70;99.90;;;;;;5092482;28;20218;-80
2023/09/02 01:09:03;;;;;;;6.37;5.33;;;9.70;99.90;;;;;;5093811;28;20221;-81
2023/09/02 01:11:31;;;;;;;6.50;5.30;;;9.60;99.90;;;;;;5111130;27;20229;-81
2023/09/02 01:13:58;;;;;;;9.87;5.87;;;9.60;99.90;;;;;;5105896;28;20223;-81
2023/09/02 01:16:25;;;;;;;6.47;4.97;;;9.60;99.90;;;;;;5109189;27;20284;-81
2023/09/02 01:18:52;;;;;;;6.80;5.23;;;9.60;99.90;;;;;;5090285;28;20544;-81
2023/09/02 01:21:42;;;;;;;6.50;5.03;;;9.60;99.90;;;;;;5110213;28;20229;-81
2023/09/02 01:24:38;;;;;;;7.33;5.23;;;9.60;99.90;;;;;;5105360;27;20279;-81
2023/09/02 01:27:17;;;;;;;7.00;5.30;;;9.50;99.90;;;;;;5094262;28;20218;-81
2023/09/02 01:29:59;;;;;;;7.50;5.07;;;9.60;99.90;;;;;;5112902;27;20250;-81
2023/09/02 01:32:33;;;;;;;6.47;5.40;;;9.50;99.90;;;;;;5095335;28;20309;-80
2023/09/02 01:35:04;;;;;;;5.90;4.57;;;9.50;99.90;;;;;;5103780;28;20736;-81
2023/09/02 01:37:33;;;;;;;8.13;5.17;;;9.50;99.90;;;;;;5104748;28;20237;-81
2023/09/02 01:40:03;;;;;;;7.47;5.50;;;9.40;99.90;;;;;;5108806;28;20286;-81
2023/09/02 01:42:31;;;;;;;7.63;5.40;;;9.40;99.90;;;;;;5090676;28;20225;-80
2023/09/02 01:44:59;;;;;;;5.70;4.50;;;9.40;99.90;;;;;;5113287;28;20246;-80
2023/09/02 01:47:27;;;;;;;5.83;4.87;;;9.40;99.90;;;;;;5095918;28;20899;-80
2023/09/02 01:49:54;;;;;;;5.57;4.47;;;9.30;99.90;;;;;;5093383;28;20508;-80
2023/09/02 01:52:21;;;;;;;6.20;4.50;;;9.30;99.90;;;;;;5090380;28;20928;-80
2023/09/02 01:54:48;;;;;;;5.33;4.63;;;9.30;99.90;;;;;;5092627;28;20904;-79
2023/09/02 01:57:16;;;;;;;8.20;4.70;;;9.20;99.90;;;;;;5087061;28;20313;-79
2023/09/02 01:59:44;;;;;;;7.03;5.03;;;9.20;99.90;;;;;;5107623;27;20218;-80
2023/09/02 02:02:10;;;;;;;6.47;4.53;;;9.20;99.90;;;;;;5089171;28;20226;-80
2023/09/02 02:04:42;;;;;;;6.40;4.50;;;9.20;99.90;;;;;;5085297;28;20939;-80
2023/09/02 02:07:14;;;;;;;7.10;4.80;;;9.20;99.90;;;;;;5087468;28;20288;-80
2023/09/02 02:09:43;;;;;;;5.43;4.10;;;9.20;99.90;;;;;;5092995;28;20217;-80
2023/09/02 02:12:11;;;;;;;4.83;4.07;;;9.10;99.90;;;;;;5085408;28;20235;-80
2023/09/02 02:14:38;;;;;;;5.20;3.87;;;9.10;99.90;;;;;;5090612;28;20227;-81
2023/09/02 02:17:07;;;;;;;5.00;4.37;;;9.10;99.90;;;;;;5086684;28;20281;-81
2023/09/02 02:19:34;;;;;;;5.37;4.50;;;9.00;99.90;;;;;;5108312;27;20251;-81
2023/09/02 02:22:02;;;;;;;5.50;4.83;;;9.00;99.90;;;;;;5088115;28;20228;-81
2023/09/02 02:24:29;;;;;;;8.17;4.93;;;9.00;99.90;;;;;;5102573;28;20222;-81
2023/09/02 02:26:56;;;;;;;5.20;4.63;;;9.00;99.90;;;;;;5085885;28;20225;-81
2023/09/02 02:29:23;;;;;;;5.40;4.70;;;9.00;99.90;;;;;;5094603;28;20317;-82
2023/09/02 02:31:50;;;;;;;6.43;4.40;;;9.00;99.90;;;;;;5089261;28;20221;-81
2023/09/02 02:34:19;;;;;;;5.93;4.60;;;8.90;99.90;;;;;;5107246;28;20229;-81
2023/09/02 02:36:46;;;;;;;5.27;3.70;;;8.90;99.90;;;;;;5102046;28;20214;-81
2023/09/02 02:39:13;;;;;;;5.93;4.27;;;8.90;99.90;;;;;;5114330;27;20256;-80
2023/09/02 02:41:40;;;;;;;6.90;4.57;;;8.90;99.90;;;;;;5092098;28;20662;-81
2023/09/02 02:44:07;;;;;;;5.70;4.70;;;8.90;99.90;;;;;;5107599;28;20625;-80
2023/09/02 02:46:34;;;;;;;6.10;4.80;;;8.80;99.90;;;;;;5086553;28;20304;-80
2023/09/02 02:49:00;;;;;;;6.23;4.80;;;8.80;99.90;;;;;;5107472;28;20221;-81
2023/09/02 02:51:29;;;;;;;5.23;4.60;;;8.80;99.90;;;;;;5076689;28;20300;-80
2023/09/02 02:53:56;;;;;;;6.57;4.37;;;8.80;99.90;;;;;;5110674;28;20209;-80
2023/09/02 02:56:23;;;;;;;5.63;4.90;;;8.80;99.90;;;;;;5092011;28;20221;-81
2023/09/02 02:58:49;;;;;;;7.73;5.50;;;8.80;99.90;;;;;;5095721;28;20770;-81
2023/09/02 03:01:16;;;;;;;6.37;4.53;;;8.70;99.90;;;;;;5104797;28;20230;-80
2023/09/02 03:03:43;;;;;;;7.03;5.57;;;8.70;99.90;;;;;;5090794;28;20725;-81
2023/09/02 03:06:15;;;;;;;7.97;5.30;;;8.70;99.90;;;;;;5109623;28;20225;-82
2023/09/02 03:08:43;;;;;;;8.53;5.40;;;8.70;99.90;;;;;;5085818;28;20305;-81
2023/09/02 03:11:10;;;;;;;7.93;5.80;;;8.70;99.90;;;;;;5106714;28;20236;-82
2023/09/02 03:13:37;;;;;;;6.67;5.27;;;8.70;99.90;;;;;;5085584;28;20900;-81
2023/09/02 03:16:10;;;;;;;7.57;5.40;;;8.70;99.90;;;;;;5089729;28;20225;-81
2023/09/02 03:18:38;;;;;;;8.87;5.10;;;8.70;99.90;;;;;;5087339;28;20222;-81
2023/09/02 03:21:06;;;;;;;6.47;5.17;;;8.70;99.90;;;;;;5083792;28;20385;-81
2023/09/02 03:23:34;;;;;;;8.03;5.40;;;8.70;99.90;;;;;;5108014;28;20233;-81
2023/09/02 03:26:09;;;;;;;5.77;4.30;;;8.70;99.90;;;;;;5082585;28;20648;-81
2023/09/02 03:28:37;;;;;;;5.27;4.70;;;8.70;99.90;;;;;;5091634;28;20749;-81
2023/09/02 03:31:05;;;;;;;7.33;5.43;;;8.70;99.90;;;;;;5107865;28;20720;-80
2023/09/02 03:33:33;;;;;;;8.53;5.33;;;8.70;99.90;;;;;;5108647;27;20272;-81
2023/09/02 03:36:00;;;;;;;6.03;5.00;;;8.60;99.90;;;;;;5095563;28;20213;-81
2023/09/02 03:38:27;;;;;;;8.37;5.53;;;8.60;99.90;;;;;;5093317;28;20311;-81
2023/09/02 03:40:54;;;;;;;4.97;3.93;;;8.70;99.90;;;;;;5114747;27;20221;-81
2023/09/02 03:43:22;;;;;;;6.40;3.87;;;8.70;99.90;;;;;;5110194;28;20680;-80
2023/09/02 03:45:50;;;;;;;4.87;3.67;;;8.60;99.90;;;;;;5092317;28;20213;-80
2023/09/02 03:48:19;;;;;;;6.03;4.57;;;8.60;99.90;;;;;;5083936;28;20221;-81
2023/09/02 03:51:01;;;;;;;6.30;4.20;;;8.60;99.90;;;;;;5089624;28;20217;-80
2023/09/02 03:53:29;;;;;;;4.93;3.90;;;8.60;99.90;;;;;;5111744;28;20221;-81
2023/09/02 03:55:56;;;;;;;4.67;3.50;;;8.60;99.90;;;;;;5095142;28;20284;-79
2023/09/02 03:58:25;;;;;;;4.67;3.43;;;8.60;99.90;;;;;;5089060;28;20302;-80
2023/09/02 04:00:51;;;;;;;4.90;3.50;;;8.50;99.90;;;;;;5087432;28;20226;-80
2023/09/02 04:03:20;;;;;;;5.60;3.67;;;8.50;99.90;;;;;;5101111;28;20285;-81
2023/09/02 04:05:47;;;;;;;6.30;3.67;;;8.50;99.90;;;;;;5109300;28;20225;-80
2023/09/02 04:08:16;;;;;;;5.67;4.20;;;8.40;99.90;;;;;;5108064;27;20224;-82
2023/09/02 04:10:42;;;;;;;5.07;4.43;;;8.40;99.90;;;;;;5102867;28;20261;-82
2023/09/02 04:13:09;;;;;;;6.53;4.27;;;8.40;99.90;;;;;;5084535;28;20225;-82
2023/09/02 04:15:37;;;;;;;5.30;4.07;;;8.40;99.90;;;;;;5092567;28;20229;-82
2023/09/02 04:18:05;;;;;;;6.97;4.70;;;8.30;99.90;;;;;;5087708;28;20305;-80
2023/09/02 04:20:35;;;;;;;7.23;4.67;;;8.40;99.90;;;;;;5100904;27;20225;-80
2023/09/02 04:23:03;;;;;;;5.90;3.97;;;8.30;99.90;;;;;;5093891;28;20231;-81
2023/09/02 04:25:29;;;;;;;8.20;5.30;;;8.30;99.90;;;;;;5107657;27;20278;-81
2023/09/02 04:27:57;;;;;;;5.83;3.93;;;8.30;99.90;;;;;;5087599;28;20742;-81
2023/09/02 04:30:25;;;;;;;5.97;4.40;;;8.30;99.90;;;;;;5087468;28;20229;-80
2023/09/02 04:32:53;;;;;;;5.40;4.27;;;8.30;99.90;;;;;;5088779;28;20299;-78
2023/09/02 04:35:21;;;;;;;7.90;4.80;;;8.30;99.90;;;;;;5088002;27;20225;-82
2023/09/02 04:37:47;;;;;;;6.03;4.73;;;8.30;99.90;;;;;;5099718;27;20216;-82
2023/09/02 04:40:15;;;;;;;6.37;5.67;;;8.30;99.90;;;;;;5099698;27;20219;-82
2023/09/02 04:42:42;;;;;;;5.30;4.77;;;8.30;99.90;;;;;;5112939;27;20270;-82
2023/09/02 04:45:10;;;;;;;7.23;5.00;;;8.30;99.90;;;;;;5097503;27;20252;-82
2023/09/02 04:47:38;;;;;;;5.80;4.40;;;8.30;99.90;;;;;;5087700;28;20222;-83
2023/09/02 04:50:08;;;;;;;6.07;4.77;;;8.30;99.90;;;;;;5086380;28;20627;-82
2023/09/02 04:52:35;;;;;;;6.23;4.30;;;8.30;99.90;;;;;;5089658;28;20848;-83
2023/09/02 04:55:02;;;;;;;8.60;5.23;;;8.30;99.90;;;;;;5086623;28;20210;-83
2023/09/02 04:57:29;;;;;;;4.97;4.30;;;8.30;99.90;;;;;;5086170;28;21032;-83
2023/09/02 04:59:57;;;;;;;8.90;5.93;;;8.30;99.90;;;;;;5092887;28;20223;-83
2023/09/02 05:02:24;;;;;;;7.23;4.90;;;8.30;99.90;;;;;;5095297;28;20390;-83
2023/09/02 05:04:52;;;;;;;7.10;5.10;;;8.40;99.90;;;;;;5087717;28;20218;-82
2023/09/02 05:07:20;;;;;;;9.43;5.83;;;8.40;99.90;;;;;;5110367;27;20262;-82
2023/09/02 05:09:48;;;;;;;13.77;7.57;;;8.40;99.90;;;;;;5089659;28;20334;-82
2023/09/02 05:12:14;;;;;;;21.03;8.20;;;8.50;99.90;;;;;;5111187;27;20233;-82
2023/09/02 05:14:41;;;;;;;15.23;8.20;;;8.50;99.90;;;;;;5078925;28;20229;-83
2023/09/02 05:17:08;;;;;;;37.23;9.80;;;8.60;99.90;;;;;;5090520;27;20228;-83
2023/09/02 05:19:36;;;;;;;19.27;8.67;;;8.60;99.90;;;;;;5087991;27;20228;-84
2023/09/02 05:22:03;;;;;;;14.90;9.40;;;8.70;99.90;;;;;;5080228;28;20236;-84
2023/09/02 05:24:32;;;;;;;14.30;9.33;;;8.70;99.90;;;;;;5096175;27;20844;-83
2023/09/02 05:26:59;;;;;;;14.73;9.27;;;8.80;99.90;;;;;;5089567;28;20225;-83
2023/09/02 05:29:26;;;;;;;14.17;9.53;;;8.90;99.90;;;;;;5083698;28;20636;-83
2023/09/02 05:31:53;;;;;;;15.47;9.10;;;9.00;99.90;;;;;;5079929;28;20872;-83
2023/09/02 05:34:19;;;;;;;15.83;9.13;;;9.10;99.90;;;;;;5085282;28;20304;-84
2023/09/02 05:36:46;;;;;;;17.23;9.37;;;9.10;99.90;;;;;;5080242;28;20759;-83
2023/09/02 05:39:13;;;;;;;16.50;10.30;;;9.30;99.90;;;;;;5099803;28;20233;-83
2023/09/02 05:41:41;;;;;;;14.43;9.23;;;9.30;99.90;;;;;;5085124;28;20227;-83
2023/09/02 05:44:08;;;;;;;13.47;8.77;;;9.40;99.90;;;;;;5083933;28;20236;-83
2023/09/02 05:46:35;;;;;;;15.23;9.77;;;9.50;99.90;;;;;;5102586;28;20229;-84
2023/09/02 05:49:02;;;;;;;16.07;9.53;;;9.50;99.90;;;;;;5097226;28;20757;-83
2023/09/02 05:51:29;;;;;;;14.07;10.00;;;9.60;99.90;;;;;;5080515;28;20716;-83
2023/09/02 05:53:57;;;;;;;15.97;9.87;;;9.70;99.90;;;;;;5085531;28;20215;-83
2023/09/02 05:56:24;;;;;;;15.27;9.47;;;9.70;99.90;;;;;;5106150;27;20311;-84
2023/09/02 05:58:52;;;;;;;14.37;9.10;;;9.80;99.90;;;;;;5101702;28;20214;-83
2023/09/02 06:01:20;;;;;;;12.53;8.67;;;9.80;99.90;;;;;;5072967;28;21287;-84
2023/09/02 06:03:46;;;;;;;12.03;8.33;;;9.90;99.90;;;;;;5090318;27;20592;-84
2023/09/02 06:06:13;;;;;;;12.40;8.23;;;10.00;99.90;;;;;;5098878;28;20234;-84
2023/09/02 06:08:40;;;;;;;16.07;9.13;;;10.00;99.90;;;;;;5112867;27;20226;-82
2023/09/02 06:11:07;;;;;;;13.17;9.17;;;10.10;99.90;;;;;;5087820;28;20722;-83
2023/09/02 06:13:35;;;;;;;13.13;9.43;;;10.10;99.90;;;;;;5105472;28;20227;-84
2023/09/02 06:16:05;;;;;;;12.00;8.70;;;10.20;99.90;;;;;;5109199;28;20224;-85
2023/09/02 06:18:32;;;;;;;9.90;7.63;;;10.20;99.90;;;;;;5102942;27;20309;-84
2023/09/02 06:20:59;;;;;;;12.10;8.83;;;10.30;99.90;;;;;;5089527;28;20222;-84
2023/09/02 06:23:26;;;;;;;12.80;9.70;;;10.40;99.90;;;;;;5087916;28;20222;-83
2023/09/02 06:25:57;;;;;;;16.40;10.60;;;10.50;99.90;;;;;;5083436;28;20286;-84
2023/09/02 06:28:24;;;;;;;14.50;9.53;;;10.50;99.90;;;;;;5065947;28;20288;-84
2023/09/02 06:30:51;;;;;;;14.50;9.37;;;10.60;99.90;;;;;;5068671;28;20311;-84
2023/09/02 06:33:22;;;;;;;15.90;9.63;;;10.70;99.90;;;;;;5081983;28;20243;-83
2023/09/02 06:35:49;;;;;;;14.17;9.80;;;10.90;99.90;;;;;;5084523;28;20221;-84
2023/09/02 06:38:16;;;;;;;14.10;9.43;;;11.00;99.90;;;;;;5069241;28;20248;-84
2023/09/02 06:40:42;;;;;;;13.10;8.90;;;11.10;99.90;;;;;;5085227;28;20329;-83
2023/09/02 06:43:09;;;;;;;11.50;9.07;;;11.20;99.90;;;;;;5063431;28;20223;-84
2023/09/02 06:45:36;;;;;;;15.40;9.20;;;11.20;99.90;;;;;;5078235;28;20774;-83
2023/09/02 06:48:03;;;;;;;11.67;9.27;;;11.40;99.90;;;;;;5066206;28;20886;-81
2023/09/02 06:50:32;;;;;;;12.13;8.50;;;11.50;99.90;;;;;;5066628;28;20252;-82
2023/09/02 06:52:59;;;;;;;11.73;8.37;;;11.60;99.90;;;;;;5066920;28;20222;-82
2023/09/02 06:55:25;;;;;;;12.73;8.53;;;11.80;99.90;;;;;;5066832;28;20227;-83
2023/09/02 06:57:52;;;;;;;14.17;9.20;;;11.90;99.90;;;;;;5066203;28;20232;-83
2023/09/02 07:00:19;;;;;;;12.57;8.37;;;12.00;99.90;;;;;;5064952;28;20232;-82
2023/09/02 07:02:45;;;;;;;11.50;8.57;;;12.10;99.90;;;;;;5077866;28;20291;-80
2023/09/02 07:05:12;;;;;;;12.43;9.30;;;12.20;99.90;;;;;;5079999;28;20223;-85
2023/09/02 07:07:40;;;;;;;11.93;8.40;;;12.30;99.90;;;;;;5064370;28;20230;-81
2023/09/02 07:10:08;;;;;;;13.00;8.33;;;12.30;99.90;;;;;;5086472;28;20251;-82
2023/09/02 07:12:34;;;;;;;13.40;9.10;;;12.40;99.90;;;;;;5063619;28;20219;-83
2023/09/02 07:15:01;;;;;;;12.40;9.07;;;12.40;99.90;;;;;;5081060;28;20229;-80
2023/09/02 07:17:28;;;;;;;12.47;8.40;;;12.50;99.90;;;;;;5079471;28;20216;-82
2023/09/02 07:19:55;;;;;;;10.47;7.50;;;12.60;99.90;;;;;;5070805;28;20210;-82
2023/09/02 07:22:22;;;;;;;10.83;8.00;;;12.70;99.90;;;;;;5067942;28;20279;-82
2023/09/02 07:24:50;;;;;;;11.37;7.97;;;12.80;99.90;;;;;;5078684;28;20217;-82
2023/09/02 07:27:16;;;;;;;11.80;8.40;;;12.90;99.90;;;;;;5101159;28;20824;-81
2023/09/02 07:29:43;;;;;;;10.97;7.37;;;13.00;99.90;;;;;;5106297;28;20231;-82
2023/09/02 07:32:10;;;;;;;10.33;7.93;;;13.10;99.90;;;;;;5106513;28;20235;-82
2023/09/02 07:34:41;;;;;;;10.03;7.67;;;13.20;99.90;;;;;;5103840;28;20225;-82
2023/09/02 07:37:07;;;;;;;9.70;7.40;;;13.30;99.90;;;;;;5108222;28;20219;-82
2023/09/02 07:39:34;;;;;;;9.90;7.03;;;13.40;99.90;;;;;;5106758;28;20225;-81
2023/09/02 07:42:02;;;;;;;7.07;6.03;;;13.50;99.90;;;;;;5104184;28;20655;-82
2023/09/02 07:44:29;;;;;;;9.70;7.10;;;13.60;99.90;;;;;;5104323;28;20238;-81
2023/09/02 07:46:56;;;;;;;7.97;6.20;;;13.70;99.90;;;;;;5101761;28;20218;-83
2023/09/02 07:49:22;;;;;;;8.63;6.60;;;13.90;99.90;;;;;;5096741;28;20229;-83
2023/09/02 07:51:49;;;;;;;6.87;5.50;;;14.20;99.90;;;;;;5099054;28;20218;-83
2023/09/02 07:54:16;;;;;;;6.03;5.03;;;14.70;99.90;;;;;;5090487;28;20911;-83
2023/09/02 07:56:42;;;;;;;7.35;4.70;;;15.40;99.90;;;;;;5087062;28;20700;-83
2023/09/02 07:59:10;;;;;;;5.63;4.00;;;16.30;99.90;;;;;;5099848;28;20734;-82
2023/09/02 08:01:37;;;;;;;5.43;3.78;;;17.20;99.90;;;;;;5095994;28;20222;-83
2023/09/02 08:04:04;;;;;;;5.15;3.90;;;18.20;99.90;;;;;;5095811;28;20910;-83
2023/09/02 08:06:31;;;;;;;4.60;3.10;;;19.00;99.90;;;;;;5091979;28;20640;-84
2023/09/02 08:08:57;;;;;;;4.45;3.38;;;20.00;99.90;;;;;;5117223;27;20889;-83
2023/09/02 08:11:24;;;;;;;4.00;2.65;;;20.80;99.90;;;;;;5096602;28;20844;-84
2023/09/02 08:13:51;;;;;;;4.53;2.58;;;21.70;99.90;;;;;;5102262;28;20635;-83
2023/09/02 08:16:19;;;;;;;3.20;2.40;;;22.30;99.90;;;;;;5102905;28;20218;-83
2023/09/02 08:18:45;;;;;;;3.85;2.10;;;22.90;99.90;;;;;;5094021;28;20222;-83
2023/09/02 08:21:12;;;;;;;3.47;1.95;;;23.40;99.90;;;;;;5099373;28;20230;-84
2023/09/02 08:23:39;;;;;;;3.83;2.13;;;23.90;99.90;;;;;;5098374;28;20276;-84
2023/09/02 08:26:10;;;;;;;3.50;1.95;;;24.30;99.90;;;;;;5096676;28;20226;-84
2023/09/02 08:28:36;;;;;;;2.97;1.50;;;24.70;99.90;;;;;;5102835;28;20313;-83
2023/09/02 08:31:03;;;;;;;1.75;1.42;;;25.00;99.90;;;;;;5099787;28;20245;-84
2023/09/02 08:33:31;;;;;;;3.08;1.67;;;25.30;99.90;;;;;;5106149;28;20692;-85
2023/09/02 08:35:58;;;;;;;2.03;1.52;;;25.50;99.90;;;;;;5103871;28;20314;-85
2023/09/02 08:38:24;;;;;;;1.30;1.20;;;25.60;99.30;;;;;;5100421;28;20223;-83
2023/09/02 08:40:53;;;;;;;3.28;1.60;;;25.50;98.90;;;;;;5099983;28;20220;-85
2023/09/02 08:43:21;;;;;;;1.42;1.23;;;25.50;98.80;;;;;;5102091;28;20957;-85
2023/09/02 08:45:53;;;;;;;2.15;1.35;;;25.50;98.80;;;;;;5103639;27;20240;-84
2023/09/02 08:48:24;;;;;;;2.00;1.10;;;25.70;98.60;;;;;;5122795;27;20305;-85
2023/09/02 08:50:53;;;;;;;1.88;1.10;;;26.00;98.40;;;;;;5099563;28;20257;-83
2023/09/02 08:53:21;;;;;;;2.00;1.20;;;26.50;97.90;;;;;;5101379;28;20231;-87
2023/09/02 08:55:49;;;;;;;1.50;1.20;;;26.90;97.70;;;;;;5105419;28;20232;-85
2023/09/02 08:58:16;;;;;;;2.78;1.10;;;27.30;96.90;;;;;;5103809;28;20252;-85
2023/09/02 09:00:43;;;;;;;1.40;1.10;;;27.70;96.20;;;;;;5101862;28;20218;-85
2023/09/02 09:03:12;;;;;;;1.38;1.10;;;27.90;95.40;;;;;;5105030;28;20222;-84
2023/09/02 09:05:41;;;;;;;1.58;1.10;;;27.80;94.40;;;;;;5097071;27;20241;-84
2023/09/02 09:08:11;;;;;;;1.95;1.10;;;27.70;93.70;;;;;;5098506;28;20298;-82
2023/09/02 09:10:39;;;;;;;1.08;0.98;;;27.50;94.00;;;;;;5105904;28;20264;-86
2023/09/02 09:13:09;;;;;;;1.67;1.20;;;27.20;94.20;;;;;;5100528;28;20214;-85
2023/09/02 09:15:37;;;;;;;2.90;1.20;;;27.10;94.10;;;;;;5097670;28;20839;-85
2023/09/02 09:18:04;;;;;;;2.10;1.00;;;26.90;94.10;;;;;;5103863;28;20891;-84
2023/09/02 09:20:32;;;;;;;1.05;0.90;;;26.80;94.10;;;;;;5099852;28;20824;-84
2023/09/02 09:22:58;;;;;;;0.90;0.90;;;26.70;93.90;;;;;;5101699;28;20214;-84
2023/09/02 09:25:27;;;;;;;2.72;1.10;;;26.70;93.80;;;;;;5097813;28;20681;-84
2023/09/02 09:28:06;;;;;;;1.33;1.05;;;26.80;93.30;;;;;;5120704;27;20224;-84
2023/09/02 09:30:33;;;;;;;2.33;1.15;;;26.90;93.70;;;;;;5098362;27;20595;-85
2023/09/02 09:33:01;;;;;;;1.20;0.90;;;27.20;93.80;;;;;;5092639;28;20305;-84
2023/09/02 09:35:28;;;;;;;1.48;0.80;;;27.60;92.30;;;;;;5098909;28;20225;-84
2023/09/02 09:37:56;;;;;;;1.50;1.20;;;28.00;91.90;;;;;;5098375;28;20227;-85
2023/09/02 09:40:31;;;;;;;1.23;1.10;;;28.40;92.20;;;;;;5096868;28;20225;-84
2023/09/02 09:42:58;;;;;;;2.10;1.10;;;28.80;90.70;;;;;;5097681;28;20220;-84
2023/09/02 09:45:25;;;;;;;0.88;0.88;;;29.20;91.20;;;;;;5097610;27;20233;-84
2023/09/02 09:47:52;;;;;;;1.98;1.00;;;29.60;90.50;;;;;;5101971;28;20865;-86
2023/09/02 09:50:19;;;;;;;2.22;1.00;;;30.00;90.30;;;;;;5094998;28;20658;-86
2023/09/02 09:53:01;;;;;;;0.90;0.80;;;30.40;86.50;;;;;;5093748;28;20308;-86
2023/09/02 09:55:30;;;;;;;2.20;1.00;;;30.70;83.10;;;;;;5104183;28;20218;-84
2023/09/02 09:57:58;;;;;;;1.45;0.80;;;31.00;82.60;;;;;;5096250;28;20936;-85
2023/09/02 10:00:25;;;;;;;1.20;1.10;;;31.10;81.30;;;;;;5099314;28;20231;-84
2023/09/02 10:02:52;;;;;;;1.33;0.90;;;31.00;80.70;;;;;;5098399;28;20666;-84
2023/09/02 10:05:25;;;;;;;1.75;0.80;;;31.00;80.20;;;;;;5102035;28;20230;-85
2023/09/02 10:08:00;;;;;;;1.63;1.00;;;30.90;77.90;;;;;;5096326;27;20218;-84
2023/09/02 10:10:33;;;;;;;1.40;1.10;;;30.70;76.80;;;;;;5120481;27;20229;-85
2023/09/02 10:13:00;;;;;;;1.05;0.95;;;30.30;76.30;;;;;;5099317;28;21612;-85
2023/09/02 10:15:28;;;;;;;1.77;0.80;;;29.90;77.90;;;;;;5097371;28;20225;-84
2023/09/02 10:17:56;;;;;;;2.00;1.10;;;29.60;78.70;;;;;;5092514;28;20226;-84
2023/09/02 10:20:26;;;;;;;1.27;0.90;;;29.50;80.60;;;;;;5102294;28;20747;-85
2023/09/02 10:22:54;;;;;;;1.17;1.00;;;29.50;76.90;;;;;;5098874;28;20225;-85
2023/09/02 10:25:25;;;;;;;1.30;0.90;;;29.50;78.50;;;;;;5116751;27;20286;-85
2023/09/02 10:28:02;;;;;;;1.35;0.80;;;29.60;77.50;;;;;;5115710;27;20229;-84
2023/09/02 10:30:34;;;;;;;1.35;0.80;;;29.60;74.80;;;;;;5100742;27;20221;-86
2023/09/02 10:33:11;;;;;;;0.85;0.77;;;29.50;75.20;;;;;;5098098;28;20594;-84
2023/09/02 10:35:42;;;;;;;1.50;1.00;;;29.30;75.10;;;;;;5121036;27;20223;-82
2023/09/02 10:38:12;;;;;;;1.25;0.90;;;29.10;75.90;;;;;;5090593;28;20231;-82
2023/09/02 10:40:40;;;;;;;1.08;0.80;;;28.90;77.40;;;;;;5101102;28;20253;-83
2023/09/02 10:43:09;;;;;;;1.60;1.00;;;28.80;77.40;;;;;;5093063;27;20222;-82
2023/09/02 10:45:37;;;;;;;1.48;0.70;;;28.70;76.60;;;;;;5089685;28;20704;-82
2023/09/02 10:48:04;;;;;;;2.13;0.95;;;28.50;76.40;;;;;;5104120;28;20229;-82
2023/09/02 10:50:31;;;;;;;1.50;0.95;;;28.20;76.50;;;;;;5103340;28;20891;-82
2023/09/02 10:52:58;;;;;;;1.85;0.90;;;27.90;77.20;;;;;;5099085;28;20225;-81
2023/09/02 10:55:24;;;;;;;1.13;0.70;;;27.80;77.10;;;;;;5088991;28;20230;-81
2023/09/02 10:57:53;;;;;;;1.33;1.00;;;27.80;78.20;;;;;;5106055;28;20314;-81
2023/09/02 11:00:23;;;;;;;1.15;0.90;;;28.00;78.60;;;;;;5097147;28;20234;-82
2023/09/02 11:02:52;;;;;;;1.35;1.00;;;28.30;78.00;;;;;;5093310;28;20223;-82
2023/09/02 11:05:19;;;;;;;1.77;1.00;;;28.60;77.00;;;;;;5090317;28;20226;-82
2023/09/02 11:07:47;;;;;;;2.17;0.90;;;28.90;77.30;;;;;;5100341;28;20230;-82
2023/09/02 11:10:14;;;;;;;1.15;0.90;;;29.30;76.20;;;;;;5116250;28;20631;-81
2023/09/02 11:13:04;;;;;;;1.40;1.00;;;29.60;75.10;;;;;;5096796;28;20242;-82
2023/09/02 11:15:33;;;;;;;1.17;1.08;;;30.00;73.70;;;;;;5097971;28;20218;-81
2023/09/02 11:18:28;;;;;;;1.40;0.90;;;30.30;72.70;;;;;;5099801;28;20297;-82
2023/09/02 11:20:54;;;;;;;1.30;0.90;;;30.50;72.00;;;;;;5094653;28;20237;-82
2023/09/02 11:23:22;;;;;;;1.45;1.20;;;30.70;71.60;;;;;;5106808;28;20236;-81
2023/09/02 11:26:01;;;;;;;2.38;1.23;;;30.70;70.30;;;;;;5098669;28;20244;-82
2023/09/02 11:28:29;;;;;;;1.75;1.10;;;30.60;68.60;;;;;;5088795;28;20305;-80
2023/09/02 11:31:06;;;;;;;1.67;1.00;;;30.40;68.70;;;;;;5101170;28;20226;-81
2023/09/02 11:33:34;;;;;;;2.47;1.20;;;30.20;68.40;;;;;;5101737;28;20746;-82
2023/09/02 11:36:06;;;;;;;3.20;1.10;;;29.90;70.00;;;;;;5105751;28;20305;-82
2023/09/02 11:38:34;;;;;;;1.80;1.23;;;29.70;69.90;;;;;;5108267;28;20218;-81
2023/09/02 11:41:01;;;;;;;1.63;1.20;;;29.70;70.90;;;;;;5106020;28;20230;-82
2023/09/02 11:43:31;;;;;;;4.53;1.40;;;29.80;71.20;;;;;;5121358;28;20221;-82
2023/09/02 11:45:59;;;;;;;1.25;0.93;;;29.90;70.20;;;;;;5104578;28;20226;-82
2023/09/02 11:48:27;;;;;;;1.83;1.20;;;29.80;69.40;;;;;;5089325;28;20230;-83
2023/09/02 11:50:57;;;;;;;4.47;3.83;;;29.70;68.90;;;;;;5088849;28;20283;-83
2023/09/02 11:53:24;;;;;;;1.42;1.20;;;29.50;69.80;;;;;;5114717;28;20762;-82
2023/09/02 11:55:51;;;;;;;1.92;1.67;;;29.30;69.80;;;;;;5105078;28;20329;-84
2023/09/02 11:58:19;;;;;;;1.92;1.13;;;29.10;70.00;;;;;;5110307;28;20732;-84
2023/09/02 12:00:46;;;;;;;3.03;1.33;;;28.80;69.70;;;;;;5100641;28;20222;-82
2023/09/02 12:03:15;;;;;;;2.67;1.50;;;28.60;70.00;;;;;;5091454;28;20309;-82
2023/09/02 12:05:49;;;;;;;2.63;1.67;;;28.40;70.20;;;;;;5092340;28;20222;-82
2023/09/02 12:08:16;;;;;;;2.13;1.10;;;28.30;69.90;;;;;;5089783;28;20237;-83
2023/09/02 12:10:44;;;;;;;2.72;1.20;;;28.20;69.80;;;;;;5090856;28;20234;-82
2023/09/02 12:13:10;;;;;;;2.15;1.10;;;28.20;69.90;;;;;;5093975;28;20228;-82
2023/09/02 12:15:37;;;;;;;2.03;1.20;;;28.30;69.80;;;;;;5111643;27;20226;-82
2023/09/02 12:18:05;;;;;;;1.50;0.90;;;28.40;69.70;;;;;;5110481;28;20225;-82
2023/09/02 12:20:32;;;;;;;1.35;1.10;;;28.40;70.00;;;;;;5095263;28;20228;-82
2023/09/02 12:23:00;;;;;;;2.60;1.15;;;28.50;71.20;;;;;;5100465;28;20214;-83
2023/09/02 12:25:27;;;;;;;1.80;1.10;;;28.50;70.00;;;;;;5094871;28;20234;-83
2023/09/02 12:28:09;;;;;;;2.83;1.30;;;28.50;70.30;;;;;;5108789;28;20221;-84
2023/09/02 12:30:36;;;;;;;1.90;1.10;;;28.40;69.90;;;;;;5088887;28;20580;-83
2023/09/02 12:33:04;;;;;;;2.40;1.17;;;28.30;69.20;;;;;;5108075;28;20225;-83
2023/09/02 12:35:31;;;;;;;2.70;0.95;;;28.10;69.30;;;;;;5111600;28;20230;-83
2023/09/02 12:38:03;;;;;;;1.33;0.90;;;27.90;69.90;;;;;;5109286;28;20236;-83
2023/09/02 12:40:31;;;;;;;4.00;1.20;;;27.80;70.10;;;;;;5098498;28;20226;-83
2023/09/02 12:42:58;;;;;;;2.45;1.10;;;27.60;70.60;;;;;;5097113;28;20232;-83
2023/09/02 12:45:29;;;;;;;1.48;1.02;;;27.50;71.10;;;;;;5096913;27;20229;-83
2023/09/02 12:47:56;;;;;;;0.90;0.75;;;27.40;71.10;;;;;;5124798;27;20692;-83
2023/09/02 12:50:23;;;;;;;1.25;0.95;;;27.40;72.00;;;;;;5108772;28;20226;-84
2023/09/02 12:52:56;;;;;;;1.40;0.93;;;27.50;71.60;;;;;;5091510;28;20229;-83